createdAt,value
2022-08-14T00:02:27.271Z,49.36
2022-08-14T00:04:55.737Z,49.39
2022-08-14T00:07:23.475Z,49.88
2022-08-14T00:10:01.404Z,49.78
2022-08-14T00:12:42.998Z,49.99
2022-08-14T00:15:24.661Z,50.65
2022-08-14T00:17:53.805Z,51.53
2022-08-14T00:20:30.621Z,51.17
2022-08-14T00:23:12.081Z,50.77
2022-08-14T00:25:43.397Z,51.20
2022-08-14T00:28:26.547Z,51.72
2022-08-14T00:31:00.202Z,51.07
2022-08-14T00:33:50.911Z,50.89
2022-08-14T00:36:37.372Z,50.75
2022-08-14T00:39:04.702Z,50.69
2022-08-14T00:41:34.353Z,51.12
2022-08-14T00:44:01.761Z,51.80
2022-08-14T00:46:33.017Z,51.69
2022-08-14T00:49:02.115Z,50.92
2022-08-14T00:51:36.724Z,51.71
2022-08-14T00:54:16.716Z,51.51
2022-08-14T00:56:55.478Z,51.66
2022-08-14T00:59:28.587Z,52.64
2022-08-14T01:02:00.073Z,51.65
2022-08-14T01:04:38.383Z,51.64
2022-08-14T01:07:20.874Z,51.36
2022-08-14T01:10:01.717Z,51.01
2022-08-14T01:12:30.510Z,50.93
2022-08-14T01:14:59.399Z,52.01
2022-08-14T01:17:49.899Z,52.11
2022-08-14T01:20:40.014Z,51.41
2022-08-14T01:23:15.853Z,50.84
2022-08-14T01:25:48.129Z,51.25
2022-08-14T01:28:47.289Z,51.37
2022-08-14T01:31:06.826Z,52.14
2022-08-14T01:34:00.109Z,52.42
2022-08-14T01:36:28.102Z,52.48
2022-08-14T01:38:58.877Z,52.59
2022-08-14T01:41:30.112Z,52.19
2022-08-14T01:44:01.573Z,52.97
2022-08-14T01:46:36.622Z,52.96
2022-08-14T01:49:08.477Z,53.00
2022-08-14T01:51:39.385Z,53.08
2022-08-14T01:54:14.271Z,53.21
2022-08-14T01:56:42.927Z,52.94
2022-08-14T01:59:18.338Z,52.43
2022-08-14T02:01:57.827Z,52.91
2022-08-14T02:04:55.612Z,53.10
2022-08-14T02:07:44.874Z,53.55
2022-08-14T02:10:13.136Z,53.78
2022-08-14T02:12:48.912Z,53.24
2022-08-14T02:15:22.569Z,52.92
2022-08-14T02:17:50.736Z,53.43
2022-08-14T02:20:23.624Z,53.73
2022-08-14T02:22:54.820Z,53.59
2022-08-14T02:25:23.572Z,54.29
2022-08-14T02:28:22.427Z,53.97
2022-08-14T02:30:44.728Z,53.56
2022-08-14T02:33:12.927Z,53.30
2022-08-14T02:35:43.442Z,53.26
2022-08-14T02:38:11.933Z,53.41
2022-08-14T02:41:00.567Z,53.82
2022-08-14T02:43:36.502Z,54.01
2022-08-14T02:46:10.166Z,54.37
2022-08-14T02:49:01.726Z,54.54
2022-08-14T02:51:30.394Z,54.56
2022-08-14T02:53:59.092Z,54.39
2022-08-14T02:56:29.949Z,52.64
2022-08-14T02:59:01.897Z,52.98
2022-08-14T03:01:43.917Z,54.30
2022-08-14T03:04:20.372Z,55.05
2022-08-14T03:07:06.454Z,54.49
2022-08-14T03:09:41.961Z,54.56
2022-08-14T03:12:31.169Z,53.85
2022-08-14T03:15:16.300Z,55.18
2022-08-14T03:17:57.875Z,55.60
2022-08-14T03:20:30.363Z,55.93
2022-08-14T03:23:03.097Z,55.62
2022-08-14T03:25:34.124Z,56.59
2022-08-14T03:28:07.502Z,56.41
2022-08-14T03:30:38.819Z,56.97
2022-08-14T03:33:12.609Z,55.19
2022-08-14T03:36:00.112Z,55.06
2022-08-14T03:39:12.833Z,55.27
2022-08-14T03:41:25.357Z,56.14
2022-08-14T03:45:17.818Z,55.52
2022-08-14T03:46:54.437Z,56.31
2022-08-14T03:49:28.905Z,55.06
2022-08-14T03:52:01.102Z,55.36
2022-08-14T03:54:29.718Z,55.80
2022-08-14T03:57:02.514Z,56.42
2022-08-14T03:59:35.430Z,55.32
2022-08-14T04:02:04.791Z,54.93
2022-08-14T04:04:52.726Z,55.81
2022-08-14T04:07:20.223Z,56.83
2022-08-14T04:09:49.793Z,56.55
2022-08-14T04:12:26.587Z,56.97
2022-08-14T04:14:54.345Z,57.17
2022-08-14T04:17:22.406Z,56.41
2022-08-14T04:19:50.363Z,57.05
2022-08-14T04:22:18.456Z,56.38
2022-08-14T04:24:49.799Z,57.16
2022-08-14T04:27:18.635Z,57.42
2022-08-14T04:29:46.078Z,57.06
2022-08-14T04:33:02.567Z,56.86
2022-08-14T04:35:07.762Z,57.34
2022-08-14T04:37:56.970Z,56.96
2022-08-14T04:40:43.008Z,56.65
2022-08-14T04:43:39.252Z,56.13
2022-08-14T04:46:11.873Z,56.22
2022-08-14T04:48:59.868Z,55.59
2022-08-14T04:51:28.215Z,55.51
2022-08-14T04:53:57.737Z,56.00
2022-08-14T04:56:31.735Z,55.95
2022-08-14T04:59:10.147Z,56.03
2022-08-14T05:01:48.733Z,54.94
2022-08-14T05:04:20.933Z,54.87
2022-08-14T05:06:53.542Z,53.98
2022-08-14T05:09:29.121Z,54.01
2022-08-14T05:13:11.327Z,53.94
2022-08-14T05:14:55.111Z,54.48
2022-08-14T05:17:32.149Z,54.21
2022-08-14T05:21:54.945Z,52.50
2022-08-14T05:23:01.452Z,53.45
2022-08-14T05:25:31.072Z,53.04
2022-08-14T05:28:16.419Z,53.41
2022-08-14T05:30:44.572Z,52.93
2022-08-14T05:33:13.325Z,52.23
2022-08-14T05:35:42.577Z,52.35
2022-08-14T05:38:22.286Z,52.19
2022-08-14T05:41:00.699Z,52.88
2022-08-14T05:43:40.697Z,52.68
2022-08-14T05:46:15.050Z,52.78
2022-08-14T05:48:43.741Z,52.76
2022-08-14T05:51:12.275Z,52.54
2022-08-14T05:53:42.244Z,52.54
2022-08-14T05:56:10.181Z,52.31
2022-08-14T05:58:41.446Z,52.06
2022-08-14T06:01:10.289Z,51.41
2022-08-14T06:03:40.224Z,51.07
2022-08-14T06:06:08.012Z,51.39
2022-08-14T06:08:41.430Z,51.25
2022-08-14T06:11:10.143Z,51.23
2022-08-14T06:13:45.170Z,51.27
2022-08-14T06:16:18.018Z,51.71
2022-08-14T06:18:52.411Z,51.04
2022-08-14T06:21:22.634Z,51.23
2022-08-14T06:23:50.649Z,51.35
2022-08-14T06:26:21.221Z,50.63
2022-08-14T06:28:52.500Z,50.26
2022-08-14T06:31:21.088Z,50.00
2022-08-14T06:35:03.055Z,50.10
2022-08-14T06:36:39.415Z,49.89
2022-08-14T06:39:10.302Z,49.75
2022-08-14T06:41:58.060Z,48.93
2022-08-14T06:44:33.174Z,48.48
2022-08-14T06:47:03.061Z,48.76
2022-08-14T06:49:42.760Z,48.21
2022-08-14T06:52:16.822Z,48.66
2022-08-14T06:54:45.630Z,48.37
2022-08-14T06:57:13.848Z,47.88
2022-08-14T06:59:43.104Z,47.08
2022-08-14T07:02:29.548Z,47.26
2022-08-14T07:05:21.013Z,47.21
2022-08-14T07:07:51.615Z,47.12
2022-08-14T07:10:24.834Z,46.42
2022-08-14T07:13:02.078Z,46.16
2022-08-14T07:15:34.022Z,46.04
2022-08-14T07:18:03.698Z,45.60
2022-08-14T07:20:36.418Z,45.94
2022-08-14T07:23:09.211Z,45.95
2022-08-14T07:25:40.184Z,45.75
2022-08-14T07:28:21.305Z,44.80
2022-08-14T07:31:04.224Z,44.67
2022-08-14T07:33:50.272Z,45.34
2022-08-14T07:36:27.290Z,44.61
2022-08-14T07:39:02.929Z,44.74
2022-08-14T07:41:35.777Z,45.45
2022-08-14T07:44:29.022Z,44.23
2022-08-14T07:46:51.725Z,44.25
2022-08-14T07:49:19.995Z,44.62
2022-08-14T07:51:49.246Z,44.80
2022-08-14T07:54:23.171Z,44.67
2022-08-14T07:57:00.092Z,44.18
2022-08-14T07:59:41.308Z,44.42
2022-08-14T08:02:19.651Z,43.82
2022-08-14T08:04:54.259Z,43.99
2022-08-14T08:07:30.827Z,44.60
2022-08-14T08:10:02.076Z,43.84
2022-08-14T08:12:32.154Z,43.21
2022-08-14T08:15:03.004Z,43.86
2022-08-14T08:17:39.203Z,43.52
2022-08-14T08:20:21.093Z,43.55
2022-08-14T08:22:55.787Z,43.54
2022-08-14T08:25:25.790Z,43.06
2022-08-14T08:28:08.947Z,43.49
2022-08-14T08:30:57.788Z,43.04
2022-08-14T08:33:37.358Z,43.05
2022-08-14T08:36:12.575Z,43.06
2022-08-14T08:39:16.919Z,42.57
2022-08-14T08:41:43.272Z,42.79
2022-08-14T08:44:17.449Z,42.45
2022-08-14T08:47:05.565Z,42.11
2022-08-14T08:49:48.130Z,42.12
2022-08-14T08:52:25.278Z,41.79
2022-08-14T08:54:56.569Z,41.73
2022-08-14T08:57:24.629Z,41.65
2022-08-14T08:59:55.032Z,41.97
2022-08-14T09:02:22.869Z,41.21
2022-08-14T09:05:02.092Z,41.14
2022-08-14T09:07:31.175Z,40.35
2022-08-14T09:10:00.770Z,39.75
2022-08-14T09:12:31.367Z,39.86
2022-08-14T09:15:02.447Z,40.45
2022-08-14T09:17:30.286Z,41.01
2022-08-14T09:20:01.985Z,40.61
2022-08-14T09:22:36.042Z,39.70
2022-08-14T09:25:07.335Z,39.25
2022-08-14T09:27:38.086Z,39.24
2022-08-14T09:30:31.525Z,38.18
2022-08-14T09:33:12.557Z,38.31
2022-08-14T09:36:04.760Z,37.83
2022-08-14T09:38:59.279Z,38.55
2022-08-14T09:42:17.776Z,38.09
2022-08-14T09:45:08.834Z,37.62
2022-08-14T09:47:54.202Z,37.01
2022-08-14T09:50:33.831Z,36.43
2022-08-14T09:53:04.513Z,34.96
2022-08-14T09:55:42.591Z,34.26
2022-08-14T09:58:19.204Z,34.54
2022-08-14T10:00:57.590Z,35.07
2022-08-14T10:03:34.618Z,34.69
2022-08-14T10:06:14.156Z,35.81
2022-08-14T10:08:51.299Z,34.95
2022-08-14T10:11:34.999Z,32.67
2022-08-14T10:14:21.151Z,32.62
2022-08-14T10:17:08.711Z,32.40
2022-08-14T10:19:48.007Z,30.99
2022-08-14T10:23:12.708Z,30.59
2022-08-14T10:25:15.381Z,31.00
2022-08-14T10:27:51.101Z,29.82
2022-08-14T10:30:35.173Z,30.62
2022-08-14T10:33:03.200Z,30.86
2022-08-14T10:35:40.718Z,30.85
2022-08-14T10:38:34.822Z,30.00
2022-08-14T10:41:18.623Z,31.16
2022-08-14T10:44:21.559Z,31.16
2022-08-14T10:47:37.914Z,30.87
2022-08-14T10:49:59.691Z,30.62
2022-08-14T10:52:34.664Z,29.36
2022-08-14T10:55:09.736Z,29.29
2022-08-14T10:57:52.556Z,29.97
2022-08-14T11:00:30.327Z,29.49
2022-08-14T11:03:19.690Z,29.60
2022-08-14T11:05:55.892Z,29.54
2022-08-14T11:08:34.147Z,28.66
2022-08-14T11:11:05.629Z,27.47
2022-08-14T11:13:34.527Z,25.70
2022-08-14T11:16:02.935Z,26.09
2022-08-14T11:18:32.246Z,27.45
2022-08-14T11:21:08.370Z,27.42
2022-08-14T11:23:41.164Z,30.23
2022-08-14T11:26:17.518Z,27.96
2022-08-14T11:28:49.644Z,28.96
2022-08-14T11:31:20.666Z,28.67
2022-08-14T11:33:53.198Z,27.84
2022-08-14T11:36:23.904Z,27.40
2022-08-14T11:39:02.939Z,24.87
2022-08-14T11:41:41.428Z,24.80
2022-08-14T11:44:17.768Z,24.10
2022-08-14T11:47:06.885Z,24.76
2022-08-14T11:49:35.185Z,25.92
2022-08-14T11:52:02.917Z,26.03
2022-08-14T11:54:34.655Z,25.81
2022-08-14T11:57:04.791Z,24.95
2022-08-14T11:59:33.971Z,24.50
2022-08-14T12:03:00.906Z,25.20
2022-08-14T12:05:04.591Z,24.58
2022-08-14T12:07:37.057Z,22.89
2022-08-14T12:10:25.525Z,23.10
2022-08-14T12:12:56.443Z,23.10
2022-08-14T12:15:35.940Z,23.76
2022-08-14T12:18:04.643Z,22.99
2022-08-14T12:20:36.818Z,23.00
2022-08-14T12:23:08.583Z,21.96
2022-08-14T12:25:36.831Z,22.06
2022-08-14T12:28:27.435Z,21.12
2022-08-14T12:30:59.742Z,20.99
2022-08-14T12:33:33.758Z,21.77
2022-08-14T12:36:06.348Z,22.38
2022-08-14T12:38:38.483Z,21.15
2022-08-14T12:41:20.829Z,21.57
2022-08-14T12:43:51.891Z,21.12
2022-08-14T12:46:28.852Z,21.84
2022-08-14T12:49:04.300Z,20.94
2022-08-14T12:51:32.736Z,20.88
2022-08-14T12:54:00.979Z,20.72
2022-08-14T12:56:34.136Z,19.43
2022-08-14T12:59:04.732Z,19.86
2022-08-14T13:02:03.089Z,19.01
2022-08-14T13:04:22.707Z,19.58
2022-08-14T13:06:51.777Z,20.07
2022-08-14T13:09:19.863Z,20.66
2022-08-14T13:11:58.864Z,20.77
2022-08-14T13:14:40.759Z,20.59
2022-08-14T13:17:10.946Z,20.88
2022-08-14T13:19:40.698Z,19.71
2022-08-14T13:22:10.183Z,21.46
2022-08-14T13:24:48.124Z,21.08
2022-08-14T13:27:16.109Z,22.32
2022-08-14T13:29:47.376Z,22.51
2022-08-14T13:32:16.264Z,22.77
2022-08-14T13:34:46.059Z,24.24
2022-08-14T13:37:17.822Z,22.60
2022-08-14T13:39:56.612Z,23.14
2022-08-14T13:42:30.577Z,22.64
2022-08-14T13:45:02.119Z,22.71
2022-08-14T13:47:33.175Z,23.36
2022-08-14T13:50:04.520Z,23.14
2022-08-14T13:52:55.487Z,23.16
2022-08-14T13:55:25.751Z,23.96
2022-08-14T13:58:04.107Z,23.87
2022-08-14T14:00:53.150Z,23.66
2022-08-14T14:03:24.505Z,24.77
2022-08-14T14:05:54.996Z,23.72
2022-08-14T14:08:46.001Z,23.54
2022-08-14T14:11:14.147Z,23.27
2022-08-14T14:13:45.972Z,22.80
2022-08-14T14:16:26.582Z,22.48
2022-08-14T14:19:08.883Z,22.09
2022-08-14T14:21:40.793Z,21.77
2022-08-14T14:24:15.062Z,22.02
2022-08-14T14:26:48.062Z,21.93
2022-08-14T14:29:24.190Z,22.13
2022-08-14T14:31:54.349Z,21.68
2022-08-14T14:34:29.703Z,20.77
2022-08-14T14:37:04.514Z,21.48
2022-08-14T14:39:37.725Z,23.32
2022-08-14T14:42:31.809Z,21.52
2022-08-14T14:45:15.541Z,21.24
2022-08-14T14:47:45.536Z,21.58
2022-08-14T14:50:14.549Z,22.66
2022-08-14T14:52:44.598Z,20.80
2022-08-14T14:55:13.513Z,20.34
2022-08-14T14:57:51.868Z,19.51
2022-08-14T15:00:22.416Z,19.26
2022-08-14T15:02:52.427Z,20.00
2022-08-14T15:05:21.463Z,19.95
2022-08-14T15:07:51.242Z,20.31
2022-08-14T15:10:27.344Z,20.61
2022-08-14T15:13:04.339Z,20.42
2022-08-14T15:15:37.449Z,19.92
2022-08-14T15:18:14.934Z,19.32
2022-08-14T15:20:57.554Z,19.50
2022-08-14T15:23:43.548Z,18.97
2022-08-14T15:26:30.946Z,21.13
2022-08-14T15:29:02.092Z,19.47
2022-08-14T15:31:37.525Z,19.20
2022-08-14T15:34:45.605Z,19.65
2022-08-14T15:37:02.273Z,20.36
2022-08-14T15:39:33.628Z,20.13
2022-08-14T15:42:14.668Z,20.24
2022-08-14T15:44:58.457Z,19.28
2022-08-14T15:47:30.710Z,19.00
2022-08-14T15:50:00.646Z,19.93
2022-08-14T15:52:37.317Z,19.27
2022-08-14T15:55:13.033Z,19.33
2022-08-14T15:58:02.163Z,19.40
2022-08-14T16:00:52.754Z,19.99
2022-08-14T16:03:25.327Z,19.93
2022-08-14T16:06:02.818Z,19.66
2022-08-14T16:08:30.840Z,19.44
2022-08-14T16:11:04.346Z,19.83
2022-08-14T16:13:41.500Z,20.87
2022-08-14T16:16:47.379Z,21.06
2022-08-14T16:19:10.273Z,20.28
2022-08-14T16:22:02.708Z,20.37
2022-08-14T16:24:33.409Z,20.78
2022-08-14T16:27:03.501Z,22.27
2022-08-14T16:29:35.751Z,21.35
2022-08-14T16:32:32.100Z,21.99
2022-08-14T16:34:54.912Z,21.29
2022-08-14T16:40:12.952Z,22.33
2022-08-14T16:40:25.497Z,21.61
2022-08-14T16:43:03.998Z,22.54
2022-08-14T16:45:31.853Z,24.91
2022-08-14T16:48:01.114Z,26.08
2022-08-14T16:50:40.402Z,26.27
2022-08-14T16:53:17.971Z,27.32
2022-08-14T16:55:53.592Z,27.61
2022-08-14T16:58:30.298Z,27.88
2022-08-14T17:01:16.362Z,28.39
2022-08-14T17:04:04.551Z,28.08
2022-08-14T17:06:36.734Z,28.12
2022-08-14T17:09:06.453Z,28.54
2022-08-14T17:11:34.349Z,28.61
2022-08-14T17:14:10.137Z,29.16
2022-08-14T17:16:38.330Z,28.84
2022-08-14T17:19:11.582Z,28.98
2022-08-14T17:21:47.121Z,29.31
2022-08-14T17:24:51.456Z,29.49
2022-08-14T17:27:08.001Z,29.11
2022-08-14T17:29:44.539Z,29.97
2022-08-14T17:35:16.621Z,31.07
2022-08-14T17:37:46.357Z,31.08
2022-08-14T17:40:19.607Z,31.84
2022-08-14T17:42:51.857Z,32.53
2022-08-14T17:45:47.722Z,33.10
2022-08-14T17:49:15.445Z,32.68
2022-08-14T17:51:24.118Z,32.42
2022-08-14T17:54:03.045Z,32.71
2022-08-14T17:56:32.944Z,33.23
2022-08-14T17:59:03.904Z,33.65
2022-08-14T18:01:36.302Z,33.94
2022-08-14T18:04:25.188Z,34.12
2022-08-14T18:06:58.686Z,34.37
2022-08-14T18:09:40.475Z,34.75
2022-08-14T18:12:32.894Z,34.96
2022-08-14T18:15:16.161Z,35.46
2022-08-14T18:17:50.513Z,35.63
2022-08-14T18:21:42.983Z,36.57
2022-08-14T18:23:13.842Z,36.52
2022-08-14T18:25:47.534Z,35.81
2022-08-14T18:28:18.310Z,37.03
2022-08-14T18:31:22.700Z,36.81
2022-08-14T18:33:59.271Z,36.48
2022-08-14T18:36:46.541Z,37.29
2022-08-14T18:39:28.279Z,37.14
2022-08-14T18:42:23.524Z,37.19
2022-08-14T18:44:52.552Z,36.99
2022-08-14T18:47:22.324Z,37.19
2022-08-14T18:49:54.309Z,37.12
2022-08-14T18:52:38.433Z,37.20
2022-08-14T18:55:16.205Z,37.53
2022-08-14T18:58:27.761Z,38.15
2022-08-14T19:00:58.706Z,39.45
2022-08-14T19:03:37.148Z,39.40
2022-08-14T19:06:08.201Z,40.05
2022-08-14T19:08:45.506Z,39.54
2022-08-14T19:11:31.958Z,40.08
2022-08-14T19:14:04.641Z,40.35
2022-08-14T19:16:42.791Z,39.40
2022-08-14T19:19:17.229Z,39.81
2022-08-14T19:21:57.353Z,39.45
2022-08-14T19:24:34.110Z,39.95
2022-08-14T19:27:23.206Z,40.85
2022-08-14T19:30:19.245Z,41.17
2022-08-14T19:32:53.153Z,42.04
2022-08-14T19:35:49.468Z,42.59
2022-08-14T19:38:52.230Z,41.26
2022-08-14T19:41:34.583Z,42.93
2022-08-14T19:44:19.386Z,42.65
2022-08-14T19:47:02.488Z,42.58
2022-08-14T19:50:08.709Z,42.90
2022-08-14T19:52:37.138Z,42.74
2022-08-14T19:55:20.723Z,42.78
2022-08-14T19:58:03.922Z,43.34
2022-08-14T20:00:33.128Z,43.88
2022-08-14T20:03:11.887Z,44.65
2022-08-14T20:05:45.802Z,44.38
2022-08-14T20:10:59.135Z,44.08
2022-08-14T20:11:44.569Z,44.64
2022-08-14T20:14:10.184Z,43.77
2022-08-14T20:16:41.392Z,44.66
2022-08-14T20:19:12.070Z,45.15
2022-08-14T20:22:00.792Z,44.88
2022-08-14T20:24:40.552Z,44.18
2022-08-14T20:27:39.555Z,43.35
2022-08-14T20:30:33.501Z,42.60
2022-08-14T20:33:10.592Z,42.69
2022-08-14T20:35:39.602Z,42.64
2022-08-14T20:38:29.586Z,42.92
2022-08-14T20:41:09.397Z,43.32
2022-08-14T20:44:00.975Z,44.01
2022-08-14T20:46:38.811Z,43.86
2022-08-14T20:49:16.192Z,44.52
2022-08-14T20:51:58.487Z,44.19
2022-08-14T20:54:50.841Z,43.87
2022-08-14T20:57:19.068Z,43.26
2022-08-14T20:59:53.636Z,43.20
2022-08-14T21:02:46.480Z,43.13
2022-08-14T21:05:22.527Z,43.26
2022-08-14T21:08:08.207Z,44.38
2022-08-14T21:10:44.419Z,44.25
2022-08-14T21:13:27.916Z,44.29
2022-08-14T21:16:32.972Z,44.39
2022-08-14T21:19:01.889Z,45.10
2022-08-14T21:21:41.595Z,45.93
2022-08-14T21:24:38.602Z,46.37
2022-08-14T21:27:12.686Z,46.42
2022-08-14T21:29:55.043Z,45.24
2022-08-14T21:32:36.605Z,45.74
2022-08-14T21:35:19.609Z,46.85
2022-08-14T21:37:52.579Z,46.44
2022-08-14T21:40:41.892Z,46.56
2022-08-14T21:43:18.348Z,45.74
2022-08-14T21:45:54.093Z,47.22
2022-08-14T21:48:29.771Z,46.00
2022-08-14T21:51:01.714Z,45.63
2022-08-14T21:53:59.260Z,45.81
2022-08-14T21:56:37.206Z,46.38
2022-08-14T21:59:17.890Z,45.96
2022-08-14T22:02:00.460Z,46.07
2022-08-14T22:04:40.708Z,46.47
2022-08-14T22:07:16.857Z,47.12
2022-08-14T22:09:55.311Z,46.54
2022-08-14T22:12:57.990Z,46.87
2022-08-14T22:15:14.651Z,46.94
2022-08-14T22:17:44.342Z,46.29
2022-08-14T22:20:16.286Z,46.60
2022-08-14T22:22:44.680Z,47.22
2022-08-14T22:25:17.509Z,46.98
2022-08-14T22:27:55.324Z,46.48
2022-08-14T22:30:24.750Z,47.60
2022-08-14T22:32:57.820Z,47.35
2022-08-14T22:35:26.798Z,47.15
2022-08-14T22:38:36.384Z,47.86
2022-08-14T22:41:05.609Z,47.19
2022-08-14T22:43:32.785Z,47.08
2022-08-14T22:46:06.307Z,48.46
2022-08-14T22:48:43.158Z,47.45
2022-08-14T22:51:17.668Z,47.57
2022-08-14T22:53:48.381Z,47.42
2022-08-14T22:56:20.376Z,47.29
2022-08-14T22:58:53.890Z,47.19
2022-08-14T23:01:56.182Z,47.89
2022-08-14T23:04:35.096Z,47.99
2022-08-14T23:07:21.893Z,48.17
2022-08-14T23:09:56.810Z,48.17
2022-08-14T23:12:31.589Z,48.12
2022-08-14T23:15:00.259Z,48.83
2022-08-14T23:17:39.370Z,49.48
2022-08-14T23:20:18.855Z,50.01
2022-08-14T23:22:53.188Z,49.14
2022-08-14T23:25:56.629Z,49.44
2022-08-14T23:28:32.668Z,49.63
2022-08-14T23:31:05.921Z,49.59
2022-08-14T23:33:46.251Z,49.94
2022-08-14T23:36:31.536Z,49.19
2022-08-14T23:39:07.221Z,48.87
2022-08-14T23:41:46.400Z,49.28
2022-08-14T23:44:22.245Z,48.92
2022-08-14T23:46:52.593Z,49.54
2022-08-14T23:49:25.468Z,48.76
2022-08-14T23:52:49.693Z,49.02
2022-08-14T23:54:48.646Z,48.58
2022-08-14T23:57:19.131Z,48.13
2022-08-14T23:59:54.875Z,49.25
